Hunt, NY (14846)

12:43 PM EDT on July 27, 2016 (GMT -0400)
APRSWXNET | | Change Station

Elev 958 ft 42.50 °N, 78.00 °W | Updated 42 minutes ago

Scattered Clouds
Scattered Clouds
83 °F
Feels Like 85 °F
N
6
Wind Variable Wind from WNW
Gusts 0.0 mph

Today
High -- | Low -- °F
--% Chance of Precip.
Yesterday
High -- | Low -- °F
Precip. -- in
Pressure 30.01 in
Visibility 10.0 miles
Clouds Few 4600 ft
Scattered Clouds 6000 ft
Heat Index 85 °F
Dew Point 66 °F
Humidity 57%
Rainfall in
Snow Depth Not available.
5:59 AM 8:36 PM
Last Quarter, 42% visible
METAR KDSV 271554Z AUTO 34008KT 10SM FEW046 SCT060 29/17 A3000 RMK AO2 SLP163 T02890167
Pressure 30.01 in
Visibility 10.0 miles
Clouds Few 4600 ft
Scattered Clouds 6000 ft
Heat Index 85 °F
Dew Point 66 °F
Humidity 57%
Rainfall in
Snow Depth Not available.
5:59 AM 8:36 PM
Last Quarter, 42% visible
METAR KDSV 271554Z AUTO 34008KT 10SM FEW046 SCT060 29/17 A3000 RMK AO2 SLP163 T02890167

10-Day Weather Forecast

Almanac

Astronomy

Jul. 27, 2016 Rise Set
Actual Time
Civil Twilight
Nautical Twilight
Astronomical Twilight
Moon
Length of Visible Light
Length of Day
Tomorrow will be .
, % of the Moon is Illuminated

Today's Extremes

State Highs State Lows

Community

WunderPhotos

Upload Photos

1,927,880 photos uploaded!

WunderBlog® & News

Nearby

Air Quality

  Air Quality AQ Index Pollutant
Not available.

Snow Depth

Station Depth Elevation

Earthquake Activity

City Distance Mag. Time & Date
Minimum magnitude displayed is 2.5.

Coastal Water Temperatures

Place Temperature

Stations

Nearby Weather Stations

Station Location Temp. Windchill Dew Point Humidity Wind Precip. Elev Updated Type
                   

Watches & Warnings

There are currently no watches in effect.